UPSVAC Airport Information Service

Heathrow

ICAO: EGLL Country: United Kingdom, EU
Latitude: 51.4711 Longitude: -0.456491
Latest Arrival : UPSE413 (EDDK-EGLL) Latest Departure : UPSJUMP (EGLL-EGNX)


WX CaptureLIVE
Data provided by noaa.gov | Fetched at 10:41:13

METAR : EGLL 011020Z AUTO 09011KT 8000 OVC012 07/04 Q1032

TAF : EGLL 010913Z 0109/0212 06006KT 5000 HZ OVC009 BECMG 0109/0112 9999 NSW FEW020 TEMPO 0119/0122 BKN010 BECMG 0122/0201 8000 BKN005 TEMPO 0200/0210 2500 BR BKN003 PROB30 TEMPO 0202/0204 1200 BKN001 PROB30 TEMPO 0204/0209 0600 FG BKN000 BECMG 0210/0212 9999 FEW014


Runway Data for EGLL
Data provided by openaviationdata.com

Runway ID Mag Var Hdg Length Elevation Surface ILS Freq ILS Id ILS Slope
09L -1 90° 13160 ft 83 ft Asphalt 110.3 IAA 3
09R -1 91° 12396 ft 83 ft Asphalt 109.5 IBB 3
27L -1 271° 12396 ft 83 ft Asphalt 109.5 ILL 3
27R -1 270° 13160 ft 83 ft Asphalt 110.3 IRR 3

Heathrow, United Kingdom, EU
Use only for reference purposes



Not for navigational purposes.